createdAt,value
2023-03-31T00:00:34.939Z,22.25
2023-03-31T00:03:02.912Z,22.78
2023-03-31T00:05:33.314Z,22.47
2023-03-31T00:08:01.978Z,22.64
2023-03-31T00:10:31.977Z,22.32
2023-03-31T00:13:02.103Z,22.51
2023-03-31T00:15:30.459Z,22.79
2023-03-31T00:18:00.590Z,22.28
2023-03-31T00:20:28.731Z,23.03
2023-03-31T00:22:57.632Z,22.97
2023-03-31T00:25:25.537Z,22.79
2023-03-31T00:27:53.448Z,22.54
2023-03-31T00:30:22.633Z,22.05
2023-03-31T00:32:50.662Z,22.01
2023-03-31T00:35:19.128Z,22.05
2023-03-31T00:37:47.215Z,21.89
2023-03-31T00:40:15.327Z,22.34
2023-03-31T00:42:44.384Z,21.81
2023-03-31T00:45:28.273Z,21.88
2023-03-31T00:48:04.306Z,21.87
2023-03-31T00:50:36.539Z,21.63
2023-03-31T00:53:09.253Z,21.80
2023-03-31T00:55:43.417Z,22.17
2023-03-31T00:58:14.554Z,21.87
2023-03-31T01:00:44.157Z,22.18
2023-03-31T01:03:12.296Z,22.19
2023-03-31T01:05:45.684Z,22.02
2023-03-31T01:08:15.519Z,21.95
2023-03-31T01:10:49.010Z,21.67
2023-03-31T01:13:19.914Z,21.74
2023-03-31T01:15:49.654Z,22.27
2023-03-31T01:18:21.202Z,22.62
2023-03-31T01:21:07.996Z,21.96
2023-03-31T01:23:51.690Z,22.26
2023-03-31T01:26:55.841Z,21.69
2023-03-31T01:29:45.649Z,21.61
2023-03-31T01:33:01.676Z,21.78
2023-03-31T01:35:53.861Z,21.68
2023-03-31T01:39:03.826Z,20.85
2023-03-31T01:41:47.414Z,21.43
2023-03-31T01:44:24.388Z,21.36
2023-03-31T01:46:56.960Z,22.00
2023-03-31T01:49:31.117Z,21.90
2023-03-31T01:52:05.721Z,21.84
2023-03-31T01:54:40.956Z,22.22
2023-03-31T01:57:16.140Z,22.68
2023-03-31T01:59:53.180Z,22.35
2023-03-31T02:02:29.270Z,22.09
2023-03-31T02:05:01.731Z,21.21
2023-03-31T02:07:35.578Z,22.06
2023-03-31T02:10:08.944Z,21.46
2023-03-31T02:12:40.934Z,21.48
2023-03-31T02:15:12.942Z,21.75
2023-03-31T02:17:45.777Z,21.52
2023-03-31T02:20:16.656Z,21.50
2023-03-31T02:22:48.085Z,21.51
2023-03-31T02:25:20.405Z,21.62
2023-03-31T02:27:54.428Z,21.67
2023-03-31T02:30:22.908Z,22.19
2023-03-31T02:32:51.060Z,21.86
2023-03-31T02:35:21.699Z,21.62
2023-03-31T02:37:50.627Z,21.45
2023-03-31T02:40:21.653Z,21.52
2023-03-31T02:42:51.322Z,21.63
2023-03-31T02:45:40.016Z,21.98
2023-03-31T02:48:12.390Z,22.69
2023-03-31T02:51:07.361Z,21.16
2023-03-31T02:53:46.002Z,21.55
2023-03-31T02:56:27.355Z,22.05
2023-03-31T02:59:30.827Z,21.49
2023-03-31T03:02:12.569Z,21.50
2023-03-31T03:05:20.146Z,21.57
2023-03-31T03:08:20.203Z,21.00
2023-03-31T03:11:02.431Z,21.41
2023-03-31T03:13:37.973Z,21.64
2023-03-31T03:16:10.869Z,20.80
2023-03-31T03:18:40.139Z,21.43
2023-03-31T03:21:08.015Z,21.08
2023-03-31T03:23:35.883Z,21.23
2023-03-31T03:26:03.874Z,21.82
2023-03-31T03:28:31.837Z,21.29
2023-03-31T03:30:59.745Z,21.17
2023-03-31T03:33:27.648Z,21.61
2023-03-31T03:35:56.856Z,21.13
2023-03-31T03:38:24.831Z,20.91
2023-03-31T03:40:54.437Z,21.65
2023-03-31T03:43:22.311Z,20.41
2023-03-31T03:45:50.302Z,21.67
2023-03-31T03:48:18.153Z,21.23
2023-03-31T03:50:47.332Z,22.36
2023-03-31T03:53:17.087Z,22.39
2023-03-31T03:55:45.861Z,22.32
2023-03-31T03:58:13.766Z,22.50
2023-03-31T04:00:41.681Z,22.23
2023-03-31T04:03:09.551Z,22.53
2023-03-31T04:05:37.578Z,22.02
2023-03-31T04:08:06.199Z,22.15
2023-03-31T04:10:35.620Z,21.53
2023-03-31T04:13:03.426Z,22.06
2023-03-31T04:15:31.433Z,22.16
2023-03-31T04:17:59.375Z,21.60
2023-03-31T04:20:31.568Z,22.45
2023-03-31T04:22:59.504Z,21.38
2023-03-31T04:25:30.776Z,22.42
2023-03-31T04:28:00.171Z,22.68
2023-03-31T04:30:31.635Z,22.10
2023-03-31T04:33:01.238Z,21.05
2023-03-31T04:35:48.401Z,21.28
2023-03-31T04:38:18.691Z,21.39
2023-03-31T04:40:47.872Z,21.92
2023-03-31T04:43:17.903Z,21.85
2023-03-31T04:45:46.405Z,21.45
2023-03-31T04:48:14.615Z,20.34
2023-03-31T04:50:42.656Z,21.27
2023-03-31T04:53:10.859Z,21.77
2023-03-31T04:55:38.918Z,20.74
2023-03-31T04:58:06.754Z,21.09
2023-03-31T05:00:36.148Z,21.24
2023-03-31T05:03:04.263Z,21.55
2023-03-31T05:05:32.312Z,21.80
2023-03-31T05:08:00.166Z,22.06
2023-03-31T05:10:28.333Z,22.06
2023-03-31T05:12:56.291Z,21.77
2023-03-31T05:15:24.593Z,21.38
2023-03-31T05:17:54.152Z,21.64
2023-03-31T05:20:22.701Z,22.50
2023-03-31T05:22:51.044Z,22.59
2023-03-31T05:25:19.555Z,23.10
2023-03-31T05:27:48.381Z,23.15
2023-03-31T05:30:18.952Z,23.02
2023-03-31T05:32:47.388Z,22.46
2023-03-31T05:35:17.499Z,22.74
2023-03-31T05:37:45.755Z,21.69
2023-03-31T05:40:14.237Z,21.36
2023-03-31T05:42:42.886Z,20.94
2023-03-31T05:45:12.407Z,21.73
2023-03-31T05:47:40.670Z,21.94
2023-03-31T05:50:09.729Z,22.04
2023-03-31T05:52:39.686Z,22.41
2023-03-31T05:55:08.782Z,20.78
2023-03-31T05:57:36.656Z,21.49
2023-03-31T06:00:08.822Z,22.57
2023-03-31T06:02:36.948Z,21.54
2023-03-31T06:05:05.585Z,20.87
2023-03-31T06:07:33.667Z,22.21
2023-03-31T06:10:03.368Z,21.37
2023-03-31T06:12:33.371Z,21.59
2023-03-31T06:15:01.567Z,22.70
2023-03-31T06:17:29.887Z,21.75
2023-03-31T06:19:58.224Z,22.27
2023-03-31T06:22:26.483Z,22.17
2023-03-31T06:24:54.759Z,23.11
2023-03-31T06:27:24.108Z,22.89
2023-03-31T06:29:57.458Z,21.88
2023-03-31T06:32:30.347Z,23.45
2023-03-31T06:34:59.968Z,23.25
2023-03-31T06:37:29.174Z,22.67
2023-03-31T06:39:57.377Z,23.01
2023-03-31T06:42:28.156Z,22.76
2023-03-31T06:45:00.250Z,22.65
2023-03-31T06:47:30.969Z,22.34
2023-03-31T06:49:59.117Z,22.90
2023-03-31T06:52:30.487Z,22.71
2023-03-31T06:54:58.567Z,21.94
2023-03-31T06:57:28.406Z,20.83
2023-03-31T06:59:56.948Z,21.60
2023-03-31T07:02:36.703Z,21.78
2023-03-31T07:05:08.152Z,21.75
2023-03-31T07:07:38.078Z,22.44
2023-03-31T07:10:09.111Z,23.04
2023-03-31T07:12:38.535Z,23.29
2023-03-31T07:15:16.891Z,22.03
2023-03-31T07:18:02.677Z,20.90
2023-03-31T07:20:32.780Z,21.24
2023-03-31T07:23:01.023Z,21.53
2023-03-31T07:25:29.214Z,21.61
2023-03-31T07:27:59.194Z,22.27
2023-03-31T07:30:27.384Z,21.63
2023-03-31T07:32:55.804Z,21.64
2023-03-31T07:35:24.221Z,21.59
2023-03-31T07:38:04.937Z,21.95
2023-03-31T07:40:33.461Z,22.09
2023-03-31T07:43:03.092Z,22.04
2023-03-31T07:45:31.319Z,23.00
2023-03-31T07:48:00.143Z,21.97
2023-03-31T07:50:29.054Z,21.91
2023-03-31T07:52:59.735Z,21.52
2023-03-31T07:55:27.839Z,21.07
2023-03-31T07:57:56.232Z,21.48
2023-03-31T08:00:26.159Z,21.20
2023-03-31T08:02:54.266Z,21.24
2023-03-31T08:05:22.413Z,21.67
2023-03-31T08:07:52.033Z,22.01
2023-03-31T08:10:22.862Z,21.01
2023-03-31T08:12:51.315Z,20.69
2023-03-31T08:15:19.617Z,20.56
2023-03-31T08:17:49.213Z,20.50
2023-03-31T08:20:17.396Z,20.73
2023-03-31T08:22:45.562Z,20.81
2023-03-31T08:25:13.428Z,20.34
2023-03-31T08:27:41.923Z,21.35
2023-03-31T08:30:12.265Z,21.80
2023-03-31T08:32:40.356Z,20.81
2023-03-31T08:35:10.611Z,21.11
2023-03-31T08:37:38.782Z,21.03
2023-03-31T08:40:09.773Z,21.29
2023-03-31T08:42:42.327Z,22.60
2023-03-31T08:45:18.703Z,22.42
2023-03-31T08:47:48.969Z,22.38
2023-03-31T08:50:25.961Z,22.95
2023-03-31T08:53:01.219Z,24.03
2023-03-31T08:55:32.836Z,23.73
2023-03-31T08:58:07.254Z,24.05
2023-03-31T09:00:45.063Z,23.41
2023-03-31T09:03:20.822Z,23.57
2023-03-31T09:06:13.009Z,22.04
2023-03-31T09:08:47.110Z,21.62
2023-03-31T09:11:27.695Z,21.19
2023-03-31T09:14:14.932Z,21.63
2023-03-31T09:16:49.752Z,22.30
2023-03-31T09:19:27.011Z,22.69
2023-03-31T09:21:57.600Z,22.12
2023-03-31T09:24:32.196Z,21.40
2023-03-31T09:27:03.816Z,21.67
2023-03-31T09:29:42.271Z,21.61
2023-03-31T09:32:16.264Z,21.57
2023-03-31T09:34:46.031Z,21.17
2023-03-31T09:37:15.467Z,21.93
2023-03-31T09:39:43.773Z,21.89
2023-03-31T09:42:14.241Z,22.32
2023-03-31T09:44:44.386Z,21.82
2023-03-31T09:47:17.754Z,21.59
2023-03-31T09:49:54.045Z,21.05
2023-03-31T09:52:30.578Z,20.69
2023-03-31T09:55:01.379Z,21.10
2023-03-31T09:57:33.516Z,20.62
2023-03-31T10:00:13.698Z,21.86
2023-03-31T10:02:45.859Z,22.30
2023-03-31T10:05:32.249Z,22.30
2023-03-31T10:08:28.168Z,20.76
2023-03-31T10:10:58.079Z,20.92
2023-03-31T10:13:29.332Z,21.63
2023-03-31T10:16:06.577Z,22.10
2023-03-31T10:18:36.830Z,22.06
2023-03-31T10:21:08.080Z,22.03
2023-03-31T10:23:39.280Z,22.02
2023-03-31T10:26:07.680Z,22.13
2023-03-31T10:28:37.230Z,22.01
2023-03-31T10:31:06.393Z,21.38
2023-03-31T10:33:39.177Z,21.67
2023-03-31T10:36:14.318Z,21.34
2023-03-31T10:38:47.149Z,21.95
2023-03-31T10:41:21.323Z,21.63
2023-03-31T10:43:52.595Z,22.97
2023-03-31T10:46:21.431Z,23.27
2023-03-31T10:48:49.675Z,21.27
2023-03-31T10:51:19.882Z,22.85
2023-03-31T10:53:51.139Z,21.39
2023-03-31T10:56:37.743Z,22.25
2023-03-31T10:59:32.610Z,21.84
2023-03-31T11:02:16.461Z,22.45
2023-03-31T11:04:51.898Z,22.43
2023-03-31T11:07:34.129Z,21.11
2023-03-31T11:10:30.575Z,22.41
2023-03-31T11:13:02.842Z,22.39
2023-03-31T11:15:38.092Z,22.30
2023-03-31T11:18:20.172Z,21.57
2023-03-31T11:20:59.522Z,21.16
2023-03-31T11:23:41.066Z,22.31
2023-03-31T11:26:14.688Z,21.08
2023-03-31T11:29:01.732Z,22.41
2023-03-31T11:31:41.422Z,21.15
2023-03-31T11:34:41.800Z,22.21
2023-03-31T11:37:32.421Z,22.91
2023-03-31T11:40:17.492Z,21.51
2023-03-31T11:42:51.801Z,21.91
2023-03-31T11:45:22.858Z,22.62
2023-03-31T11:47:56.191Z,22.43
2023-03-31T11:50:27.654Z,22.58
2023-03-31T11:53:02.230Z,24.20
2023-03-31T11:55:32.906Z,23.23
2023-03-31T11:58:07.546Z,23.69
2023-03-31T12:00:40.652Z,23.67
2023-03-31T12:03:14.563Z,23.48
2023-03-31T12:05:47.168Z,23.83
2023-03-31T12:08:21.343Z,24.25
2023-03-31T12:10:53.513Z,22.94
2023-03-31T12:13:43.076Z,24.21
2023-03-31T12:16:16.145Z,22.71
2023-03-31T12:18:54.516Z,23.32
2023-03-31T12:21:23.814Z,24.91
2023-03-31T12:23:52.218Z,25.50
2023-03-31T12:26:38.684Z,24.50
2023-03-31T12:29:20.591Z,25.01
2023-03-31T12:31:49.705Z,25.67
2023-03-31T12:34:21.634Z,26.76
2023-03-31T12:37:07.138Z,26.72
2023-03-31T12:39:46.174Z,27.16
2023-03-31T12:42:37.347Z,26.74
2023-03-31T12:45:18.580Z,24.70
2023-03-31T12:48:04.295Z,26.54
2023-03-31T12:50:46.625Z,27.10
2023-03-31T12:53:26.671Z,26.33
2023-03-31T12:55:57.983Z,26.25
2023-03-31T12:58:45.032Z,26.61
2023-03-31T13:01:19.868Z,28.19
2023-03-31T13:03:51.148Z,28.02
2023-03-31T13:06:54.926Z,27.09
2023-03-31T13:09:43.384Z,27.99
2023-03-31T13:12:17.196Z,27.50
2023-03-31T13:14:46.887Z,27.50
2023-03-31T13:17:24.932Z,26.37
2023-03-31T13:19:54.368Z,27.74
2023-03-31T13:22:38.043Z,27.97
2023-03-31T13:25:33.789Z,28.36
2023-03-31T13:28:13.911Z,29.09
2023-03-31T13:30:52.007Z,25.84
2023-03-31T13:33:32.059Z,25.49
2023-03-31T13:36:26.198Z,25.87
2023-03-31T13:39:09.919Z,25.29
2023-03-31T13:41:51.776Z,25.43
2023-03-31T13:44:52.615Z,26.39
2023-03-31T13:47:59.541Z,27.33
2023-03-31T13:50:52.706Z,26.44
2023-03-31T13:53:39.204Z,25.94
2023-03-31T13:56:24.971Z,25.14
2023-03-31T13:59:15.740Z,26.08
2023-03-31T14:02:27.852Z,25.98
2023-03-31T14:05:19.395Z,24.81
2023-03-31T14:07:54.949Z,24.17
2023-03-31T14:10:25.389Z,24.08
2023-03-31T14:12:53.762Z,24.30
2023-03-31T14:15:22.955Z,23.84
2023-03-31T14:17:51.060Z,24.33
2023-03-31T14:20:34.523Z,24.97
2023-03-31T14:23:25.771Z,24.02
2023-03-31T14:26:03.240Z,25.47
2023-03-31T14:28:46.769Z,24.90
2023-03-31T14:31:23.536Z,25.36
2023-03-31T14:34:09.965Z,25.33
2023-03-31T14:36:46.938Z,25.94
2023-03-31T14:39:22.413Z,26.35
2023-03-31T14:41:54.492Z,26.47
2023-03-31T14:44:22.934Z,26.97
2023-03-31T14:46:57.557Z,27.45
2023-03-31T14:49:28.553Z,25.85
2023-03-31T14:52:01.816Z,25.42
2023-03-31T14:54:37.911Z,25.92
2023-03-31T14:57:06.807Z,24.74
2023-03-31T14:59:42.517Z,24.73
2023-03-31T15:02:17.149Z,24.57
2023-03-31T15:04:48.263Z,23.63
2023-03-31T15:07:17.913Z,22.91
2023-03-31T15:09:51.312Z,24.01
2023-03-31T15:12:22.370Z,24.68
2023-03-31T15:14:53.086Z,25.57
2023-03-31T15:17:24.460Z,25.45
2023-03-31T15:20:00.581Z,24.39
2023-03-31T15:22:30.601Z,23.27
2023-03-31T15:25:00.810Z,22.08
2023-03-31T15:30:26.756Z,23.10
2023-03-31T15:33:01.419Z,23.85
2023-03-31T15:35:37.847Z,23.37
2023-03-31T15:38:07.659Z,22.99
2023-03-31T15:40:41.353Z,22.49
2023-03-31T15:43:25.747Z,23.28
2023-03-31T15:45:56.093Z,21.72
2023-03-31T15:48:33.916Z,22.04
2023-03-31T15:51:06.673Z,27.86
2023-03-31T15:53:38.796Z,26.36
2023-03-31T15:56:08.957Z,23.51
2023-03-31T15:58:56.871Z,23.96
2023-03-31T16:01:33.008Z,21.08
2023-03-31T16:04:02.640Z,20.66
2023-03-31T16:06:40.769Z,21.58
2023-03-31T16:09:11.177Z,22.31
2023-03-31T16:11:44.570Z,22.28
2023-03-31T16:14:20.715Z,22.23
2023-03-31T16:16:53.077Z,22.42
2023-03-31T16:19:24.745Z,23.12
2023-03-31T16:21:55.666Z,22.77
2023-03-31T16:24:31.294Z,23.44
2023-03-31T16:27:06.616Z,23.20
2023-03-31T16:29:37.058Z,22.18
2023-03-31T16:32:10.675Z,21.95
2023-03-31T16:34:54.122Z,21.75
2023-03-31T16:37:22.561Z,22.51
2023-03-31T16:39:51.231Z,22.92
2023-03-31T16:42:21.819Z,22.63
2023-03-31T16:45:04.426Z,21.36
2023-03-31T16:47:38.254Z,21.23
2023-03-31T16:50:09.281Z,21.71
2023-03-31T16:52:38.384Z,21.88
2023-03-31T16:55:06.986Z,22.63
2023-03-31T16:57:36.962Z,23.12
2023-03-31T17:00:05.865Z,22.98
2023-03-31T17:02:34.246Z,22.80
2023-03-31T17:05:12.529Z,22.60
2023-03-31T17:07:41.621Z,22.59
2023-03-31T17:10:10.678Z,22.30
2023-03-31T17:12:40.622Z,22.60
2023-03-31T17:15:10.384Z,22.69
2023-03-31T17:17:38.591Z,22.50
2023-03-31T17:20:09.140Z,23.04
2023-03-31T17:22:38.236Z,22.63
2023-03-31T17:25:08.039Z,22.17
2023-03-31T17:27:36.501Z,21.47
2023-03-31T17:30:08.079Z,21.12
2023-03-31T17:32:36.656Z,21.57
2023-03-31T17:35:05.558Z,21.25
2023-03-31T17:37:34.857Z,21.50
2023-03-31T17:40:03.376Z,21.97
2023-03-31T17:42:34.989Z,21.95
2023-03-31T17:45:03.085Z,21.96
2023-03-31T17:47:33.513Z,22.05
2023-03-31T17:50:01.587Z,21.42
2023-03-31T17:52:29.609Z,21.58
2023-03-31T17:54:58.391Z,21.97
2023-03-31T17:57:27.379Z,22.80
2023-03-31T17:59:55.728Z,21.97
2023-03-31T18:02:24.181Z,22.40
2023-03-31T18:04:53.574Z,23.06
2023-03-31T18:07:23.169Z,22.67
2023-03-31T18:09:51.216Z,22.40
2023-03-31T18:12:19.281Z,22.10
2023-03-31T18:14:47.364Z,22.35
2023-03-31T18:17:16.168Z,22.51
2023-03-31T18:19:44.473Z,22.67
2023-03-31T18:22:13.947Z,22.49
2023-03-31T18:24:41.996Z,21.43
2023-03-31T18:27:10.887Z,22.14
2023-03-31T18:29:39.859Z,22.08
2023-03-31T18:32:08.265Z,21.65
2023-03-31T18:34:38.258Z,21.34
2023-03-31T18:37:06.479Z,21.77
2023-03-31T18:39:35.791Z,21.61
2023-03-31T18:42:04.164Z,21.99
2023-03-31T18:44:32.721Z,21.61
2023-03-31T18:47:00.723Z,20.72
2023-03-31T18:49:28.866Z,20.93
2023-03-31T18:51:58.644Z,21.09
2023-03-31T18:54:26.497Z,20.52
2023-03-31T18:56:55.652Z,20.68
2023-03-31T18:59:24.243Z,20.52
2023-03-31T19:01:52.302Z,20.70
2023-03-31T19:04:20.096Z,20.42
2023-03-31T19:06:47.917Z,20.05
2023-03-31T19:09:15.979Z,21.16
2023-03-31T19:11:43.756Z,21.23
2023-03-31T19:14:13.685Z,21.36
2023-03-31T19:16:45.011Z,20.94
2023-03-31T19:19:13.325Z,20.58
2023-03-31T19:21:41.718Z,19.43
2023-03-31T19:24:10.396Z,20.01
2023-03-31T19:26:38.363Z,20.22
2023-03-31T19:29:06.920Z,20.28
2023-03-31T19:31:38.471Z,19.89
2023-03-31T19:34:06.960Z,20.48
2023-03-31T19:36:35.533Z,20.13
2023-03-31T19:39:04.575Z,19.47
2023-03-31T19:41:32.501Z,20.31
2023-03-31T19:44:00.360Z,20.93
2023-03-31T19:46:28.912Z,20.23
2023-03-31T19:48:58.233Z,20.11
2023-03-31T19:51:27.646Z,20.13
2023-03-31T19:53:55.649Z,19.83
2023-03-31T19:56:25.294Z,19.90
2023-03-31T19:58:53.584Z,19.85
2023-03-31T20:01:23.555Z,19.98
2023-03-31T20:03:53.537Z,19.40
2023-03-31T20:06:24.705Z,19.34
2023-03-31T20:08:57.304Z,19.30
2023-03-31T20:11:26.276Z,18.87
2023-03-31T20:13:55.005Z,19.39
2023-03-31T20:16:24.791Z,19.78
2023-03-31T20:18:54.882Z,20.30
2023-03-31T20:21:26.281Z,20.06
2023-03-31T20:23:55.306Z,20.72
2023-03-31T20:26:25.157Z,20.70
2023-03-31T20:28:55.919Z,20.63
2023-03-31T20:31:26.069Z,21.44
2023-03-31T20:33:56.098Z,20.62
2023-03-31T20:36:27.306Z,20.20
2023-03-31T20:38:55.310Z,20.64
2023-03-31T20:41:26.310Z,19.67
2023-03-31T20:43:55.045Z,20.08
2023-03-31T20:46:23.851Z,20.30
2023-03-31T20:48:53.346Z,20.45
2023-03-31T20:51:24.628Z,20.89
2023-03-31T20:53:55.141Z,20.23
2023-03-31T20:56:25.279Z,20.27
2023-03-31T20:58:55.033Z,20.82
2023-03-31T21:01:23.691Z,20.02
2023-03-31T21:03:51.738Z,20.32
2023-03-31T21:06:20.863Z,19.59
2023-03-31T21:08:54.334Z,19.65
2023-03-31T21:11:24.131Z,19.68
2023-03-31T21:13:53.250Z,19.68
2023-03-31T21:16:21.707Z,19.84
2023-03-31T21:18:51.427Z,19.76
2023-03-31T21:21:20.018Z,19.29
2023-03-31T21:23:49.783Z,19.34
2023-03-31T21:26:19.362Z,19.64
2023-03-31T21:28:48.323Z,20.33
2023-03-31T21:31:21.070Z,20.30
2023-03-31T21:33:49.418Z,20.30
2023-03-31T21:36:20.583Z,20.49
2023-03-31T21:38:49.722Z,19.20
2023-03-31T21:41:22.642Z,19.41
2023-03-31T21:43:51.279Z,19.71
2023-03-31T21:46:31.413Z,20.12
2023-03-31T21:49:02.872Z,20.49
2023-03-31T21:51:38.957Z,20.32
2023-03-31T21:54:07.590Z,20.43
2023-03-31T21:56:37.018Z,20.20
2023-03-31T21:59:06.676Z,20.26
2023-03-31T22:01:34.795Z,20.70
2023-03-31T22:04:03.222Z,20.55
2023-03-31T22:06:31.633Z,20.57
2023-03-31T22:08:59.496Z,20.01
2023-03-31T22:11:28.395Z,20.71
2023-03-31T22:13:58.117Z,21.33
2023-03-31T22:16:26.057Z,21.02
2023-03-31T22:18:55.780Z,20.91
2023-03-31T22:21:41.692Z,20.28
2023-03-31T22:24:13.120Z,20.99
2023-03-31T22:26:41.125Z,21.37
2023-03-31T22:29:15.715Z,21.55
2023-03-31T22:31:43.632Z,21.34
2023-03-31T22:34:12.546Z,20.71
2023-03-31T22:36:40.612Z,20.35
2023-03-31T22:39:08.635Z,20.42
2023-03-31T22:41:36.704Z,20.26
2023-03-31T22:44:04.875Z,20.04
2023-03-31T22:46:34.281Z,19.61
2023-03-31T22:49:02.304Z,19.79
2023-03-31T22:51:31.046Z,20.01
2023-03-31T22:54:02.122Z,19.66
2023-03-31T22:56:30.056Z,20.28
2023-03-31T22:58:58.685Z,20.35
2023-03-31T23:01:27.038Z,20.40
2023-03-31T23:03:56.730Z,21.01
2023-03-31T23:06:25.063Z,21.12
2023-03-31T23:08:53.028Z,20.80
2023-03-31T23:11:21.297Z,20.99
2023-03-31T23:13:49.262Z,20.65
2023-03-31T23:16:21.937Z,20.38
2023-03-31T23:18:51.775Z,20.67
2023-03-31T23:21:23.620Z,20.64
2023-03-31T23:23:53.702Z,21.04
2023-03-31T23:26:22.125Z,20.83
2023-03-31T23:28:50.593Z,21.26
2023-03-31T23:31:19.941Z,20.84
2023-03-31T23:33:48.751Z,20.78
2023-03-31T23:36:18.349Z,21.08
2023-03-31T23:38:48.482Z,21.54
2023-03-31T23:41:20.549Z,21.13
2023-03-31T23:43:48.407Z,21.03
2023-03-31T23:46:16.604Z,21.27
2023-03-31T23:48:44.781Z,21.32
2023-03-31T23:51:13.538Z,21.15
2023-03-31T23:53:41.641Z,21.59
2023-03-31T23:56:14.610Z,20.16
2023-03-31T23:58:43.093Z,20.59
